Belleville, Illinois
Current Conditions -  °F | °C
As of 11:58 PM on Friday 19 Dec 2014 (Local Time) from KBLV Reporting Station
Overcast Overcast  
Wind Chill: 34°   Ceiling: 5000
Heat Index: 34°   Visibility: 10mi
Dew Point: 29°   Wind: 2mph
Humidity: 85%   Direction: 120°ESE
Pressure: 30.27"   Gusts: NA
Location:  38.51°N, 89.98°W
Report Text: KBLV 200558Z AUTO 12002KT 10SM FEW033 OVC050 01/M01 A3027 RMK AO2 SLP258 T00091014 10015 20009 400231040 52005 $
Loading
Personal Weather Stations






























Interactive Weather Map New forecast layout! Learn more

10-Day Weather Forecast

Advertisements
Track Severe Weather on mobile